sensor_id;sensor_type;location;lat;lon;timestamp;temperature;humidity
21666;DHT22;10994;45.486;9.190;2024-02-04T00:01:41;12.50;99.90
21666;DHT22;10994;45.486;9.190;2024-02-04T00:04:07;12.50;99.90
21666;DHT22;10994;45.486;9.190;2024-02-04T00:06:32;12.60;99.90
21666;DHT22;10994;45.486;9.190;2024-02-04T00:08:58;12.40;99.90
21666;DHT22;10994;45.486;9.190;2024-02-04T00:11:24;12.40;99.90
21666;DHT22;10994;45.486;9.190;2024-02-04T00:13:50;12.40;99.90
21666;DHT22;10994;45.486;9.190;2024-02-04T00:16:15;12.30;99.90
21666;DHT22;10994;45.486;9.190;2024-02-04T00:18:41;12.40;99.90
21666;DHT22;10994;45.486;9.190;2024-02-04T00:21:07;12.50;99.90
21666;DHT22;10994;45.486;9.190;2024-02-04T00:23:33;12.60;99.90
21666;DHT22;10994;45.486;9.190;2024-02-04T00:25:58;12.50;99.90
21666;DHT22;10994;45.486;9.190;2024-02-04T00:28:24;12.60;99.90
21666;DHT22;10994;45.486;9.190;2024-02-04T00:30:50;12.60;99.90
21666;DHT22;10994;45.486;9.190;2024-02-04T00:33:18;12.50;99.90
21666;DHT22;10994;45.486;9.190;2024-02-04T00:35:43;12.60;99.90
21666;DHT22;10994;45.486;9.190;2024-02-04T00:38:09;12.50;99.90
21666;DHT22;10994;45.486;9.190;2024-02-04T00:40:35;12.60;99.90
21666;DHT22;10994;45.486;9.190;2024-02-04T00:43:00;12.60;99.90
21666;DHT22;10994;45.486;9.190;2024-02-04T00:45:26;12.50;99.90
21666;DHT22;10994;45.486;9.190;2024-02-04T00:47:52;12.30;99.90
21666;DHT22;10994;45.486;9.190;2024-02-04T00:50:18;12.30;99.90
21666;DHT22;10994;45.486;9.190;2024-02-04T00:52:44;12.30;99.90
21666;DHT22;10994;45.486;9.190;2024-02-04T00:55:10;12.20;99.90
21666;DHT22;10994;45.486;9.190;2024-02-04T00:57:35;12.20;99.90
21666;DHT22;10994;45.486;9.190;2024-02-04T01:00:01;12.00;99.90
21666;DHT22;10994;45.486;9.190;2024-02-04T01:02:27;12.10;99.90
21666;DHT22;10994;45.486;9.190;2024-02-04T01:04:52;12.10;99.90
21666;DHT22;10994;45.486;9.190;2024-02-04T01:07:18;12.10;99.90
21666;DHT22;10994;45.486;9.190;2024-02-04T01:09:44;12.00;99.90
21666;DHT22;10994;45.486;9.190;2024-02-04T01:12:09;12.00;99.90
21666;DHT22;10994;45.486;9.190;2024-02-04T01:14:35;12.00;99.90
21666;DHT22;10994;45.486;9.190;2024-02-04T01:17:00;12.10;99.90
21666;DHT22;10994;45.486;9.190;2024-02-04T01:19:26;12.10;99.90
21666;DHT22;10994;45.486;9.190;2024-02-04T01:21:52;12.10;99.90
21666;DHT22;10994;45.486;9.190;2024-02-04T01:24:17;11.90;99.90
21666;DHT22;10994;45.486;9.190;2024-02-04T01:26:43;12.00;99.90
21666;DHT22;10994;45.486;9.190;2024-02-04T01:29:09;12.00;99.90
21666;DHT22;10994;45.486;9.190;2024-02-04T01:31:34;12.00;99.90
21666;DHT22;10994;45.486;9.190;2024-02-04T01:34:00;11.90;99.90
21666;DHT22;10994;45.486;9.190;2024-02-04T01:36:26;11.80;99.90
21666;DHT22;10994;45.486;9.190;2024-02-04T01:38:51;11.90;99.90
21666;DHT22;10994;45.486;9.190;2024-02-04T01:41:17;12.00;99.90
21666;DHT22;10994;45.486;9.190;2024-02-04T01:43:43;12.10;99.90
21666;DHT22;10994;45.486;9.190;2024-02-04T01:46:09;12.20;99.90
21666;DHT22;10994;45.486;9.190;2024-02-04T01:48:35;12.30;99.90
21666;DHT22;10994;45.486;9.190;2024-02-04T01:51:02;12.40;99.90
21666;DHT22;10994;45.486;9.190;2024-02-04T01:53:29;12.30;99.90
21666;DHT22;10994;45.486;9.190;2024-02-04T01:55:55;12.10;99.90
21666;DHT22;10994;45.486;9.190;2024-02-04T01:58:22;12.30;99.90
21666;DHT22;10994;45.486;9.190;2024-02-04T02:00:49;12.40;99.90
21666;DHT22;10994;45.486;9.190;2024-02-04T02:03:16;12.40;99.90
21666;DHT22;10994;45.486;9.190;2024-02-04T02:05:42;12.40;99.90
21666;DHT22;10994;45.486;9.190;2024-02-04T02:08:08;12.50;99.90
21666;DHT22;10994;45.486;9.190;2024-02-04T02:10:33;12.50;99.90
21666;DHT22;10994;45.486;9.190;2024-02-04T02:13:25;12.50;99.90
21666;DHT22;10994;45.486;9.190;2024-02-04T02:15:54;12.70;99.90
21666;DHT22;10994;45.486;9.190;2024-02-04T02:18:30;12.70;99.90
21666;DHT22;10994;45.486;9.190;2024-02-04T02:24:10;12.70;99.90
21666;DHT22;10994;45.486;9.190;2024-02-04T02:26:36;12.40;99.90
21666;DHT22;10994;45.486;9.190;2024-02-04T02:29:07;12.40;99.90
21666;DHT22;10994;45.486;9.190;2024-02-04T02:31:38;12.40;99.90
21666;DHT22;10994;45.486;9.190;2024-02-04T02:34:07;12.30;99.90
21666;DHT22;10994;45.486;9.190;2024-02-04T02:36:40;12.40;99.90
21666;DHT22;10994;45.486;9.190;2024-02-04T02:39:15;12.50;99.90
21666;DHT22;10994;45.486;9.190;2024-02-04T02:41:44;12.50;99.90
21666;DHT22;10994;45.486;9.190;2024-02-04T02:44:11;12.40;99.90
21666;DHT22;10994;45.486;9.190;2024-02-04T02:46:38;12.30;99.90
21666;DHT22;10994;45.486;9.190;2024-02-04T02:49:04;12.10;99.90
21666;DHT22;10994;45.486;9.190;2024-02-04T02:51:30;12.00;99.90
21666;DHT22;10994;45.486;9.190;2024-02-04T02:53:56;11.90;99.90
21666;DHT22;10994;45.486;9.190;2024-02-04T02:56:21;11.90;99.90
21666;DHT22;10994;45.486;9.190;2024-02-04T02:58:47;12.00;99.90
21666;DHT22;10994;45.486;9.190;2024-02-04T03:01:13;12.20;99.90
21666;DHT22;10994;45.486;9.190;2024-02-04T03:03:38;12.30;99.90
21666;DHT22;10994;45.486;9.190;2024-02-04T03:06:05;12.20;99.90
21666;DHT22;10994;45.486;9.190;2024-02-04T03:08:31;12.30;99.90
21666;DHT22;10994;45.486;9.190;2024-02-04T03:10:56;12.10;99.90
21666;DHT22;10994;45.486;9.190;2024-02-04T03:13:22;12.10;99.90
21666;DHT22;10994;45.486;9.190;2024-02-04T03:15:48;12.30;99.90
21666;DHT22;10994;45.486;9.190;2024-02-04T03:18:14;12.30;99.90
21666;DHT22;10994;45.486;9.190;2024-02-04T03:20:39;12.30;99.90
21666;DHT22;10994;45.486;9.190;2024-02-04T03:23:05;12.30;99.90
21666;DHT22;10994;45.486;9.190;2024-02-04T03:25:31;12.40;99.90
21666;DHT22;10994;45.486;9.190;2024-02-04T03:27:57;12.50;99.90
21666;DHT22;10994;45.486;9.190;2024-02-04T03:30:23;12.50;99.90
21666;DHT22;10994;45.486;9.190;2024-02-04T03:32:49;12.50;99.90
21666;DHT22;10994;45.486;9.190;2024-02-04T03:35:15;12.60;99.90
21666;DHT22;10994;45.486;9.190;2024-02-04T03:37:41;12.70;99.90
21666;DHT22;10994;45.486;9.190;2024-02-04T03:40:07;12.60;99.90
21666;DHT22;10994;45.486;9.190;2024-02-04T03:42:33;12.40;99.90
21666;DHT22;10994;45.486;9.190;2024-02-04T03:45:00;12.30;99.90
21666;DHT22;10994;45.486;9.190;2024-02-04T03:47:28;12.30;99.90
21666;DHT22;10994;45.486;9.190;2024-02-04T03:49:53;12.20;99.90
21666;DHT22;10994;45.486;9.190;2024-02-04T03:52:19;12.30;99.90
21666;DHT22;10994;45.486;9.190;2024-02-04T03:54:45;12.30;99.90
21666;DHT22;10994;45.486;9.190;2024-02-04T03:57:10;12.20;99.90
21666;DHT22;10994;45.486;9.190;2024-02-04T03:59:36;12.40;99.90
21666;DHT22;10994;45.486;9.190;2024-02-04T04:02:02;12.50;99.90
21666;DHT22;10994;45.486;9.190;2024-02-04T04:04:27;12.50;99.90
21666;DHT22;10994;45.486;9.190;2024-02-04T04:06:53;12.50;99.90
21666;DHT22;10994;45.486;9.190;2024-02-04T04:09:18;12.50;99.90
21666;DHT22;10994;45.486;9.190;2024-02-04T04:11:44;12.60;99.90
21666;DHT22;10994;45.486;9.190;2024-02-04T04:14:10;12.60;99.90
21666;DHT22;10994;45.486;9.190;2024-02-04T04:16:35;12.60;99.90
21666;DHT22;10994;45.486;9.190;2024-02-04T04:19:01;12.70;99.90
21666;DHT22;10994;45.486;9.190;2024-02-04T04:21:27;12.70;99.90
21666;DHT22;10994;45.486;9.190;2024-02-04T04:23:52;12.60;99.90
21666;DHT22;10994;45.486;9.190;2024-02-04T04:26:18;12.30;99.90
21666;DHT22;10994;45.486;9.190;2024-02-04T04:28:44;12.40;99.90
21666;DHT22;10994;45.486;9.190;2024-02-04T04:31:09;12.40;99.90
21666;DHT22;10994;45.486;9.190;2024-02-04T04:33:38;12.40;99.90
21666;DHT22;10994;45.486;9.190;2024-02-04T04:36:04;12.30;99.90
21666;DHT22;10994;45.486;9.190;2024-02-04T04:38:29;12.20;99.90
21666;DHT22;10994;45.486;9.190;2024-02-04T04:40:55;12.30;99.90
21666;DHT22;10994;45.486;9.190;2024-02-04T04:43:21;12.30;99.90
21666;DHT22;10994;45.486;9.190;2024-02-04T04:45:46;12.40;99.90
21666;DHT22;10994;45.486;9.190;2024-02-04T04:48:12;12.40;99.90
21666;DHT22;10994;45.486;9.190;2024-02-04T04:50:38;12.50;99.90
21666;DHT22;10994;45.486;9.190;2024-02-04T04:53:03;12.50;99.90
21666;DHT22;10994;45.486;9.190;2024-02-04T04:55:29;12.50;99.90
21666;DHT22;10994;45.486;9.190;2024-02-04T04:57:55;12.50;99.90
21666;DHT22;10994;45.486;9.190;2024-02-04T05:00:20;12.50;99.90
21666;DHT22;10994;45.486;9.190;2024-02-04T05:02:46;12.60;99.90
21666;DHT22;10994;45.486;9.190;2024-02-04T05:05:13;12.50;99.90
21666;DHT22;10994;45.486;9.190;2024-02-04T05:07:39;12.50;99.90
21666;DHT22;10994;45.486;9.190;2024-02-04T05:10:06;12.50;99.90
21666;DHT22;10994;45.486;9.190;2024-02-04T05:12:33;12.50;99.90
21666;DHT22;10994;45.486;9.190;2024-02-04T05:14:59;12.50;99.90
21666;DHT22;10994;45.486;9.190;2024-02-04T05:17:26;12.50;99.90
21666;DHT22;10994;45.486;9.190;2024-02-04T05:19:52;12.50;99.90
21666;DHT22;10994;45.486;9.190;2024-02-04T05:22:17;12.50;99.90
21666;DHT22;10994;45.486;9.190;2024-02-04T05:24:43;12.40;99.90
21666;DHT22;10994;45.486;9.190;2024-02-04T05:27:08;12.30;99.90
21666;DHT22;10994;45.486;9.190;2024-02-04T05:29:34;12.30;99.90
21666;DHT22;10994;45.486;9.190;2024-02-04T05:32:00;12.30;99.90
21666;DHT22;10994;45.486;9.190;2024-02-04T05:34:25;12.20;99.90
21666;DHT22;10994;45.486;9.190;2024-02-04T05:36:51;12.20;99.90
21666;DHT22;10994;45.486;9.190;2024-02-04T05:39:17;12.10;99.90
21666;DHT22;10994;45.486;9.190;2024-02-04T05:41:43;12.20;99.90
21666;DHT22;10994;45.486;9.190;2024-02-04T05:44:09;12.20;99.90
21666;DHT22;10994;45.486;9.190;2024-02-04T05:46:38;12.10;99.90
21666;DHT22;10994;45.486;9.190;2024-02-04T05:49:04;12.00;99.90
21666;DHT22;10994;45.486;9.190;2024-02-04T05:51:32;11.90;99.90
21666;DHT22;10994;45.486;9.190;2024-02-04T05:53:58;11.80;99.90
21666;DHT22;10994;45.486;9.190;2024-02-04T05:56:24;11.50;99.90
21666;DHT22;10994;45.486;9.190;2024-02-04T05:58:49;11.40;99.90
21666;DHT22;10994;45.486;9.190;2024-02-04T06:01:16;11.20;99.90
21666;DHT22;10994;45.486;9.190;2024-02-04T06:03:43;11.10;99.90
21666;DHT22;10994;45.486;9.190;2024-02-04T06:06:15;10.90;99.90
21666;DHT22;10994;45.486;9.190;2024-02-04T06:08:42;10.80;99.90
21666;DHT22;10994;45.486;9.190;2024-02-04T06:11:12;10.90;99.90
21666;DHT22;10994;45.486;9.190;2024-02-04T06:13:42;10.90;99.90
21666;DHT22;10994;45.486;9.190;2024-02-04T06:16:08;10.60;99.90
21666;DHT22;10994;45.486;9.190;2024-02-04T06:18:36;10.50;99.90
21666;DHT22;10994;45.486;9.190;2024-02-04T06:21:05;10.50;99.90
21666;DHT22;10994;45.486;9.190;2024-02-04T06:23:30;10.50;99.90
21666;DHT22;10994;45.486;9.190;2024-02-04T06:25:56;10.50;99.90
21666;DHT22;10994;45.486;9.190;2024-02-04T06:28:22;10.40;99.90
21666;DHT22;10994;45.486;9.190;2024-02-04T06:30:49;10.50;99.90
21666;DHT22;10994;45.486;9.190;2024-02-04T06:33:15;10.60;99.90
21666;DHT22;10994;45.486;9.190;2024-02-04T06:35:40;10.50;99.90
21666;DHT22;10994;45.486;9.190;2024-02-04T06:38:06;10.40;99.90
21666;DHT22;10994;45.486;9.190;2024-02-04T06:40:32;10.40;99.90
21666;DHT22;10994;45.486;9.190;2024-02-04T06:42:57;10.60;99.90
21666;DHT22;10994;45.486;9.190;2024-02-04T06:45:23;10.80;99.90
21666;DHT22;10994;45.486;9.190;2024-02-04T06:47:49;10.90;99.90
21666;DHT22;10994;45.486;9.190;2024-02-04T06:50:15;10.70;99.90
21666;DHT22;10994;45.486;9.190;2024-02-04T06:52:42;10.70;99.90
21666;DHT22;10994;45.486;9.190;2024-02-04T06:55:11;10.70;99.90
21666;DHT22;10994;45.486;9.190;2024-02-04T06:57:36;10.80;99.90
21666;DHT22;10994;45.486;9.190;2024-02-04T07:00:02;10.60;99.90
21666;DHT22;10994;45.486;9.190;2024-02-04T07:02:31;10.40;99.90
21666;DHT22;10994;45.486;9.190;2024-02-04T07:04:57;10.60;99.90
21666;DHT22;10994;45.486;9.190;2024-02-04T07:07:23;10.90;99.90
21666;DHT22;10994;45.486;9.190;2024-02-04T07:09:49;11.00;99.90
21666;DHT22;10994;45.486;9.190;2024-02-04T07:12:14;11.00;99.90
21666;DHT22;10994;45.486;9.190;2024-02-04T07:14:40;10.80;99.90
21666;DHT22;10994;45.486;9.190;2024-02-04T07:17:06;10.70;99.90
21666;DHT22;10994;45.486;9.190;2024-02-04T07:19:31;10.50;99.90
21666;DHT22;10994;45.486;9.190;2024-02-04T07:21:57;10.50;99.90
21666;DHT22;10994;45.486;9.190;2024-02-04T07:24:22;10.60;99.90
21666;DHT22;10994;45.486;9.190;2024-02-04T07:26:48;10.50;99.90
21666;DHT22;10994;45.486;9.190;2024-02-04T07:29:14;10.50;99.90
21666;DHT22;10994;45.486;9.190;2024-02-04T07:31:39;10.50;99.90
21666;DHT22;10994;45.486;9.190;2024-02-04T07:34:07;10.60;99.90
21666;DHT22;10994;45.486;9.190;2024-02-04T07:36:32;10.50;99.90
21666;DHT22;10994;45.486;9.190;2024-02-04T07:38:58;10.30;99.90
21666;DHT22;10994;45.486;9.190;2024-02-04T07:41:25;10.30;99.90
21666;DHT22;10994;45.486;9.190;2024-02-04T07:43:51;10.50;99.90
21666;DHT22;10994;45.486;9.190;2024-02-04T07:46:17;10.70;99.90
21666;DHT22;10994;45.486;9.190;2024-02-04T07:48:42;10.90;99.90
21666;DHT22;10994;45.486;9.190;2024-02-04T07:51:08;11.00;99.90
21666;DHT22;10994;45.486;9.190;2024-02-04T07:53:34;11.00;99.90
21666;DHT22;10994;45.486;9.190;2024-02-04T07:56:02;11.00;99.90
21666;DHT22;10994;45.486;9.190;2024-02-04T07:58:29;10.80;99.90
21666;DHT22;10994;45.486;9.190;2024-02-04T08:00:55;10.70;99.90
21666;DHT22;10994;45.486;9.190;2024-02-04T08:03:20;10.80;99.90
21666;DHT22;10994;45.486;9.190;2024-02-04T08:05:46;10.80;99.90
21666;DHT22;10994;45.486;9.190;2024-02-04T08:08:12;10.90;99.90
21666;DHT22;10994;45.486;9.190;2024-02-04T08:10:37;11.00;99.90
21666;DHT22;10994;45.486;9.190;2024-02-04T08:13:03;11.10;99.90
21666;DHT22;10994;45.486;9.190;2024-02-04T08:15:29;11.20;99.90
21666;DHT22;10994;45.486;9.190;2024-02-04T08:17:55;11.30;99.90
21666;DHT22;10994;45.486;9.190;2024-02-04T08:20:22;11.40;99.90
21666;DHT22;10994;45.486;9.190;2024-02-04T08:22:54;11.40;99.90
21666;DHT22;10994;45.486;9.190;2024-02-04T08:25:21;11.40;99.90
21666;DHT22;10994;45.486;9.190;2024-02-04T08:27:54;11.50;99.90
21666;DHT22;10994;45.486;9.190;2024-02-04T08:30:19;11.40;99.90
21666;DHT22;10994;45.486;9.190;2024-02-04T08:32:47;11.30;99.90
21666;DHT22;10994;45.486;9.190;2024-02-04T08:35:13;11.40;99.90
21666;DHT22;10994;45.486;9.190;2024-02-04T08:37:39;11.60;99.90
21666;DHT22;10994;45.486;9.190;2024-02-04T08:40:08;11.80;99.90
21666;DHT22;10994;45.486;9.190;2024-02-04T08:42:34;11.90;99.90
21666;DHT22;10994;45.486;9.190;2024-02-04T08:45:00;11.90;99.90
21666;DHT22;10994;45.486;9.190;2024-02-04T08:47:25;11.80;99.90
21666;DHT22;10994;45.486;9.190;2024-02-04T08:49:51;11.90;99.90
21666;DHT22;10994;45.486;9.190;2024-02-04T08:52:18;11.90;99.90
21666;DHT22;10994;45.486;9.190;2024-02-04T08:54:44;11.90;99.90
21666;DHT22;10994;45.486;9.190;2024-02-04T08:57:09;12.10;99.90
21666;DHT22;10994;45.486;9.190;2024-02-04T08:59:35;12.30;99.90
21666;DHT22;10994;45.486;9.190;2024-02-04T09:02:01;12.70;99.90
21666;DHT22;10994;45.486;9.190;2024-02-04T09:04:27;12.80;99.90
21666;DHT22;10994;45.486;9.190;2024-02-04T09:06:53;13.20;99.90
21666;DHT22;10994;45.486;9.190;2024-02-04T09:09:18;13.60;99.90
21666;DHT22;10994;45.486;9.190;2024-02-04T09:11:44;13.70;99.90
21666;DHT22;10994;45.486;9.190;2024-02-04T09:14:09;13.80;99.90
21666;DHT22;10994;45.486;9.190;2024-02-04T09:16:38;13.80;99.90
21666;DHT22;10994;45.486;9.190;2024-02-04T09:19:03;13.70;99.90
21666;DHT22;10994;45.486;9.190;2024-02-04T09:21:29;13.50;99.90
21666;DHT22;10994;45.486;9.190;2024-02-04T09:23:55;13.40;99.90
21666;DHT22;10994;45.486;9.190;2024-02-04T09:26:22;13.30;99.90
21666;DHT22;10994;45.486;9.190;2024-02-04T09:28:48;13.30;99.90
21666;DHT22;10994;45.486;9.190;2024-02-04T09:31:14;13.00;99.90
21666;DHT22;10994;45.486;9.190;2024-02-04T09:33:39;13.00;99.90
21666;DHT22;10994;45.486;9.190;2024-02-04T09:36:06;13.00;99.90
21666;DHT22;10994;45.486;9.190;2024-02-04T09:38:32;13.10;99.90
21666;DHT22;10994;45.486;9.190;2024-02-04T09:40:57;13.10;99.90
21666;DHT22;10994;45.486;9.190;2024-02-04T09:43:24;13.10;99.90
21666;DHT22;10994;45.486;9.190;2024-02-04T09:45:50;13.10;99.90
21666;DHT22;10994;45.486;9.190;2024-02-04T09:48:20;13.10;99.90
21666;DHT22;10994;45.486;9.190;2024-02-04T09:50:47;13.10;99.90
21666;DHT22;10994;45.486;9.190;2024-02-04T09:53:15;13.10;99.90
21666;DHT22;10994;45.486;9.190;2024-02-04T09:55:48;12.90;99.90
21666;DHT22;10994;45.486;9.190;2024-02-04T09:58:14;13.00;99.90
21666;DHT22;10994;45.486;9.190;2024-02-04T10:00:40;12.80;99.90
21666;DHT22;10994;45.486;9.190;2024-02-04T10:03:09;12.80;99.90
21666;DHT22;10994;45.486;9.190;2024-02-04T10:05:35;12.70;99.90
21666;DHT22;10994;45.486;9.190;2024-02-04T10:08:01;12.80;99.90
21666;DHT22;10994;45.486;9.190;2024-02-04T10:10:26;12.40;99.90
21666;DHT22;10994;45.486;9.190;2024-02-04T10:12:52;12.50;99.90
21666;DHT22;10994;45.486;9.190;2024-02-04T10:15:18;12.40;99.90
21666;DHT22;10994;45.486;9.190;2024-02-04T10:17:47;12.50;99.90
21666;DHT22;10994;45.486;9.190;2024-02-04T10:20:12;12.60;99.90
21666;DHT22;10994;45.486;9.190;2024-02-04T10:22:38;12.20;99.90
21666;DHT22;10994;45.486;9.190;2024-02-04T10:25:08;12.20;99.90
21666;DHT22;10994;45.486;9.190;2024-02-04T10:27:35;12.30;99.90
21666;DHT22;10994;45.486;9.190;2024-02-04T10:30:00;12.40;99.90
21666;DHT22;10994;45.486;9.190;2024-02-04T10:32:26;12.20;99.90
21666;DHT22;10994;45.486;9.190;2024-02-04T10:34:52;12.30;99.90
21666;DHT22;10994;45.486;9.190;2024-02-04T10:37:17;12.20;99.90
21666;DHT22;10994;45.486;9.190;2024-02-04T10:39:43;12.30;99.90
21666;DHT22;10994;45.486;9.190;2024-02-04T10:42:09;12.40;99.90
21666;DHT22;10994;45.486;9.190;2024-02-04T10:44:39;12.50;99.90
21666;DHT22;10994;45.486;9.190;2024-02-04T10:47:10;12.30;99.90
21666;DHT22;10994;45.486;9.190;2024-02-04T10:49:42;12.40;99.90
21666;DHT22;10994;45.486;9.190;2024-02-04T10:52:12;12.50;99.90
21666;DHT22;10994;45.486;9.190;2024-02-04T10:54:39;12.50;99.90
21666;DHT22;10994;45.486;9.190;2024-02-04T10:57:13;12.50;99.90
21666;DHT22;10994;45.486;9.190;2024-02-04T10:59:42;12.40;99.90
21666;DHT22;10994;45.486;9.190;2024-02-04T11:02:10;12.50;99.90
21666;DHT22;10994;45.486;9.190;2024-02-04T11:04:36;12.70;99.90
21666;DHT22;10994;45.486;9.190;2024-02-04T11:07:03;12.80;99.90
21666;DHT22;10994;45.486;9.190;2024-02-04T11:09:30;12.90;99.90
21666;DHT22;10994;45.486;9.190;2024-02-04T11:11:58;13.00;99.90
21666;DHT22;10994;45.486;9.190;2024-02-04T11:14:25;13.10;99.90
21666;DHT22;10994;45.486;9.190;2024-02-04T11:23:17;13.40;99.90
21666;DHT22;10994;45.486;9.190;2024-02-04T11:25:52;13.40;99.90
21666;DHT22;10994;45.486;9.190;2024-02-04T11:28:21;13.50;99.90
21666;DHT22;10994;45.486;9.190;2024-02-04T11:30:48;13.60;99.90
21666;DHT22;10994;45.486;9.190;2024-02-04T11:33:18;13.60;99.90
21666;DHT22;10994;45.486;9.190;2024-02-04T11:35:44;13.70;99.90
21666;DHT22;10994;45.486;9.190;2024-02-04T11:38:11;13.80;99.90
21666;DHT22;10994;45.486;9.190;2024-02-04T11:40:39;13.90;99.90
21666;DHT22;10994;45.486;9.190;2024-02-04T11:43:12;14.00;99.90
21666;DHT22;10994;45.486;9.190;2024-02-04T11:45:42;14.00;99.90
21666;DHT22;10994;45.486;9.190;2024-02-04T11:48:09;14.00;99.90
21666;DHT22;10994;45.486;9.190;2024-02-04T11:50:36;14.00;99.90
21666;DHT22;10994;45.486;9.190;2024-02-04T11:53:12;14.10;99.90
21666;DHT22;10994;45.486;9.190;2024-02-04T11:55:41;14.10;99.90
21666;DHT22;10994;45.486;9.190;2024-02-04T11:58:08;14.10;99.90
21666;DHT22;10994;45.486;9.190;2024-02-04T12:00:35;14.20;99.90
21666;DHT22;10994;45.486;9.190;2024-02-04T12:03:05;14.20;99.90
21666;DHT22;10994;45.486;9.190;2024-02-04T12:05:33;14.20;99.90
21666;DHT22;10994;45.486;9.190;2024-02-04T12:08:01;14.20;99.90
21666;DHT22;10994;45.486;9.190;2024-02-04T12:10:29;14.30;99.90
21666;DHT22;10994;45.486;9.190;2024-02-04T12:12:55;14.40;99.90
21666;DHT22;10994;45.486;9.190;2024-02-04T12:15:21;14.50;99.90
21666;DHT22;10994;45.486;9.190;2024-02-04T12:17:47;14.50;99.90
21666;DHT22;10994;45.486;9.190;2024-02-04T12:20:13;14.70;99.90
21666;DHT22;10994;45.486;9.190;2024-02-04T12:22:39;14.70;99.90
21666;DHT22;10994;45.486;9.190;2024-02-04T12:25:06;14.70;99.90
21666;DHT22;10994;45.486;9.190;2024-02-04T12:27:31;14.80;99.90
21666;DHT22;10994;45.486;9.190;2024-02-04T12:29:57;14.90;99.90
21666;DHT22;10994;45.486;9.190;2024-02-04T12:32:24;15.10;99.90
21666;DHT22;10994;45.486;9.190;2024-02-04T12:34:51;15.30;99.90
21666;DHT22;10994;45.486;9.190;2024-02-04T12:37:19;15.70;99.90
21666;DHT22;10994;45.486;9.190;2024-02-04T12:39:45;16.50;99.90
21666;DHT22;10994;45.486;9.190;2024-02-04T12:44:50;17.10;99.90
21666;DHT22;10994;45.486;9.190;2024-02-04T12:47:20;18.10;99.90
21666;DHT22;10994;45.486;9.190;2024-02-04T12:49:46;19.30;99.90
21666;DHT22;10994;45.486;9.190;2024-02-04T12:52:12;20.40;99.90
21666;DHT22;10994;45.486;9.190;2024-02-04T12:54:44;20.30;99.90
21666;DHT22;10994;45.486;9.190;2024-02-04T12:57:21;19.30;99.90
21666;DHT22;10994;45.486;9.190;2024-02-04T12:59:47;18.40;99.90
21666;DHT22;10994;45.486;9.190;2024-02-04T13:02:14;17.80;99.90
21666;DHT22;10994;45.486;9.190;2024-02-04T13:04:41;17.30;99.90
21666;DHT22;10994;45.486;9.190;2024-02-04T13:07:13;17.00;99.90
21666;DHT22;10994;45.486;9.190;2024-02-04T13:09:40;16.80;99.90
21666;DHT22;10994;45.486;9.190;2024-02-04T13:12:07;16.80;99.90
21666;DHT22;10994;45.486;9.190;2024-02-04T13:14:34;16.70;99.90
21666;DHT22;10994;45.486;9.190;2024-02-04T13:17:00;16.60;99.90
21666;DHT22;10994;45.486;9.190;2024-02-04T13:19:34;16.40;99.90
21666;DHT22;10994;45.486;9.190;2024-02-04T13:22:02;16.40;99.90
21666;DHT22;10994;45.486;9.190;2024-02-04T13:24:29;16.40;99.90
21666;DHT22;10994;45.486;9.190;2024-02-04T13:26:55;16.40;99.90
21666;DHT22;10994;45.486;9.190;2024-02-04T13:29:20;16.40;99.90
21666;DHT22;10994;45.486;9.190;2024-02-04T13:31:46;16.40;99.90
21666;DHT22;10994;45.486;9.190;2024-02-04T13:34:12;16.30;99.90
21666;DHT22;10994;45.486;9.190;2024-02-04T13:36:37;16.00;99.90
21666;DHT22;10994;45.486;9.190;2024-02-04T13:39:03;16.10;99.90
21666;DHT22;10994;45.486;9.190;2024-02-04T13:41:31;16.10;99.90
21666;DHT22;10994;45.486;9.190;2024-02-04T13:43:57;16.10;99.90
21666;DHT22;10994;45.486;9.190;2024-02-04T13:46:22;16.00;99.90
21666;DHT22;10994;45.486;9.190;2024-02-04T13:48:48;15.90;99.90
21666;DHT22;10994;45.486;9.190;2024-02-04T13:51:14;15.90;99.90
21666;DHT22;10994;45.486;9.190;2024-02-04T13:53:39;15.90;99.90
21666;DHT22;10994;45.486;9.190;2024-02-04T13:56:05;15.90;99.90
21666;DHT22;10994;45.486;9.190;2024-02-04T13:58:31;15.90;99.90
21666;DHT22;10994;45.486;9.190;2024-02-04T14:00:57;15.80;99.90
21666;DHT22;10994;45.486;9.190;2024-02-04T14:03:24;15.80;99.90
21666;DHT22;10994;45.486;9.190;2024-02-04T14:05:50;15.80;99.90
21666;DHT22;10994;45.486;9.190;2024-02-04T14:08:15;15.80;99.90
21666;DHT22;10994;45.486;9.190;2024-02-04T14:10:41;15.80;99.90
21666;DHT22;10994;45.486;9.190;2024-02-04T14:13:07;15.80;99.90
21666;DHT22;10994;45.486;9.190;2024-02-04T14:15:32;15.70;99.90
21666;DHT22;10994;45.486;9.190;2024-02-04T14:17:59;15.60;99.90
21666;DHT22;10994;45.486;9.190;2024-02-04T14:20:25;15.60;99.90
21666;DHT22;10994;45.486;9.190;2024-02-04T14:22:51;15.60;99.90
21666;DHT22;10994;45.486;9.190;2024-02-04T14:25:17;15.60;99.90
21666;DHT22;10994;45.486;9.190;2024-02-04T14:27:42;15.60;99.90
21666;DHT22;10994;45.486;9.190;2024-02-04T14:30:08;15.60;99.90
21666;DHT22;10994;45.486;9.190;2024-02-04T14:32:34;15.70;99.90
21666;DHT22;10994;45.486;9.190;2024-02-04T14:35:00;15.70;99.90
21666;DHT22;10994;45.486;9.190;2024-02-04T14:37:26;15.70;99.90
21666;DHT22;10994;45.486;9.190;2024-02-04T14:39:51;15.70;99.90
21666;DHT22;10994;45.486;9.190;2024-02-04T14:42:18;15.70;99.90
21666;DHT22;10994;45.486;9.190;2024-02-04T14:44:44;15.70;99.90
21666;DHT22;10994;45.486;9.190;2024-02-04T14:47:10;15.70;99.90
21666;DHT22;10994;45.486;9.190;2024-02-04T14:49:36;15.70;99.90
21666;DHT22;10994;45.486;9.190;2024-02-04T14:52:03;15.60;99.90
21666;DHT22;10994;45.486;9.190;2024-02-04T14:54:29;15.60;99.90
21666;DHT22;10994;45.486;9.190;2024-02-04T14:56:54;15.60;99.90
21666;DHT22;10994;45.486;9.190;2024-02-04T14:59:20;15.60;99.90
21666;DHT22;10994;45.486;9.190;2024-02-04T15:01:46;15.60;99.90
21666;DHT22;10994;45.486;9.190;2024-02-04T15:04:12;15.70;99.90
21666;DHT22;10994;45.486;9.190;2024-02-04T15:06:39;15.60;99.90
21666;DHT22;10994;45.486;9.190;2024-02-04T15:09:05;15.70;99.90
21666;DHT22;10994;45.486;9.190;2024-02-04T15:11:31;15.70;99.90
21666;DHT22;10994;45.486;9.190;2024-02-04T15:13:58;15.70;99.90
21666;DHT22;10994;45.486;9.190;2024-02-04T15:16:24;15.60;99.90
21666;DHT22;10994;45.486;9.190;2024-02-04T15:18:50;15.60;99.90
21666;DHT22;10994;45.486;9.190;2024-02-04T15:21:16;15.60;99.90
21666;DHT22;10994;45.486;9.190;2024-02-04T15:23:42;15.50;99.90
21666;DHT22;10994;45.486;9.190;2024-02-04T15:26:10;15.50;99.90
21666;DHT22;10994;45.486;9.190;2024-02-04T15:28:38;15.40;99.90
21666;DHT22;10994;45.486;9.190;2024-02-04T15:31:04;15.40;99.90
21666;DHT22;10994;45.486;9.190;2024-02-04T15:33:30;15.30;99.90
21666;DHT22;10994;45.486;9.190;2024-02-04T15:35:56;15.30;99.90
21666;DHT22;10994;45.486;9.190;2024-02-04T15:38:22;15.30;99.90